createdAt,value
2023-02-28T00:00:04.482Z,6.30
2023-02-28T00:01:04.444Z,6.28
2023-02-28T00:02:04.480Z,6.28
2023-02-28T00:03:04.490Z,6.24
2023-02-28T00:04:04.396Z,6.33
2023-02-28T00:05:04.397Z,6.24
2023-02-28T00:06:04.386Z,6.28
2023-02-28T00:07:04.361Z,6.31
2023-02-28T00:08:04.376Z,6.27
2023-02-28T00:09:04.345Z,6.24
2023-02-28T00:10:04.329Z,6.20
2023-02-28T00:11:04.340Z,6.27
2023-02-28T00:12:04.333Z,6.24
2023-02-28T00:13:04.298Z,6.19
2023-02-28T00:14:04.288Z,6.09
2023-02-28T00:15:04.278Z,6.14
2023-02-28T00:16:04.270Z,6.16
2023-02-28T00:17:04.258Z,6.02
2023-02-28T00:18:04.269Z,5.94
2023-02-28T00:19:04.239Z,5.91
2023-02-28T00:20:04.238Z,5.93
2023-02-28T00:21:04.212Z,6.02
2023-02-28T00:22:04.207Z,6.05
2023-02-28T00:23:04.205Z,5.99
2023-02-28T00:24:04.219Z,6.08
2023-02-28T00:25:04.170Z,5.99
2023-02-28T00:26:04.171Z,6.07
2023-02-28T00:27:04.180Z,6.05
2023-02-28T00:28:04.173Z,6.09
2023-02-28T00:29:04.140Z,6.14
2023-02-28T00:30:04.140Z,6.12
2023-02-28T00:31:04.156Z,6.14
2023-02-28T00:32:04.137Z,6.08
2023-02-28T00:33:04.112Z,6.09
2023-02-28T00:34:04.075Z,6.16
2023-02-28T00:35:04.070Z,6.19
2023-02-28T00:36:04.100Z,6.17
2023-02-28T00:37:04.070Z,6.20
2023-02-28T00:38:04.025Z,6.17
2023-02-28T00:39:04.032Z,6.08
2023-02-28T00:40:04.021Z,6.16
2023-02-28T00:41:03.999Z,6.14
2023-02-28T00:42:03.987Z,6.22
2023-02-28T00:43:04.019Z,6.16
2023-02-28T00:44:03.998Z,6.05
2023-02-28T00:45:03.962Z,6.19
2023-02-28T00:46:04.036Z,6.12
2023-02-28T00:47:03.956Z,6.19
2023-02-28T00:48:03.925Z,6.17
2023-02-28T00:49:03.924Z,6.14
2023-02-28T00:50:03.920Z,6.11
2023-02-28T00:51:03.900Z,6.09
2023-02-28T00:52:03.899Z,6.16
2023-02-28T00:53:03.878Z,6.14
2023-02-28T00:54:03.875Z,6.17
2023-02-28T00:55:03.855Z,6.19
2023-02-28T00:56:03.856Z,6.14
2023-02-28T00:57:03.846Z,6.05
2023-02-28T00:58:03.836Z,6.07
2023-02-28T00:59:03.824Z,6.05
2023-02-28T01:00:03.800Z,5.98
2023-02-28T01:01:03.844Z,5.97
2023-02-28T01:02:03.770Z,5.91
2023-02-28T01:03:03.788Z,5.93
2023-02-28T01:04:03.794Z,5.94
2023-02-28T01:05:03.749Z,5.93
2023-02-28T01:06:03.730Z,5.91
2023-02-28T01:07:03.729Z,6.04
2023-02-28T01:08:03.710Z,5.89
2023-02-28T01:09:03.704Z,5.93
2023-02-28T01:10:03.728Z,5.97
2023-02-28T01:11:03.687Z,5.87
2023-02-28T01:12:03.672Z,5.91
2023-02-28T01:13:03.676Z,5.93
2023-02-28T01:14:03.665Z,5.91
2023-02-28T01:15:03.658Z,5.89
2023-02-28T01:16:03.660Z,5.93
2023-02-28T01:17:03.622Z,5.93
2023-02-28T01:18:03.603Z,5.83
2023-02-28T01:19:03.612Z,5.83
2023-02-28T01:20:03.604Z,5.83
2023-02-28T01:21:03.581Z,5.84
2023-02-28T01:22:03.597Z,5.82
2023-02-28T01:23:03.548Z,5.82
2023-02-28T01:24:03.533Z,5.83
2023-02-28T01:25:03.557Z,5.83
2023-02-28T01:26:03.532Z,5.82
2023-02-28T01:27:03.509Z,5.89
2023-02-28T01:28:03.514Z,5.86
2023-02-28T01:29:03.506Z,5.87
2023-02-28T01:30:03.483Z,5.75
2023-02-28T01:31:03.526Z,5.93
2023-02-28T01:32:03.504Z,5.87
2023-02-28T01:33:03.447Z,5.82
2023-02-28T01:34:03.430Z,5.82
2023-02-28T01:35:03.440Z,5.89
2023-02-28T01:36:03.485Z,5.84
2023-02-28T01:37:03.427Z,5.80
2023-02-28T01:38:20.507Z,5.84
2023-02-28T01:39:04.411Z,5.86
2023-02-28T01:40:03.366Z,5.90
2023-02-28T01:41:03.360Z,5.76
2023-02-28T01:42:03.352Z,5.79
2023-02-28T01:43:03.334Z,5.89
2023-02-28T01:44:03.362Z,5.79
2023-02-28T01:45:03.320Z,5.83
2023-02-28T01:46:03.358Z,5.86
2023-02-28T01:47:03.318Z,5.82
2023-02-28T01:48:03.296Z,5.84
2023-02-28T01:49:03.274Z,5.80
2023-02-28T01:50:03.270Z,5.79
2023-02-28T01:51:03.252Z,5.73
2023-02-28T01:52:03.245Z,5.72
2023-02-28T01:53:03.252Z,5.72
2023-02-28T01:54:03.219Z,5.72
2023-02-28T01:55:03.214Z,5.69
2023-02-28T01:56:03.202Z,5.69
2023-02-28T01:57:03.185Z,5.66
2023-02-28T01:58:03.171Z,5.53
2023-02-28T01:59:03.190Z,5.62
2023-02-28T02:00:03.165Z,5.61
2023-02-28T02:01:03.139Z,5.54
2023-02-28T02:02:03.199Z,5.59
2023-02-28T02:03:03.193Z,5.54
2023-02-28T02:04:03.112Z,5.50
2023-02-28T02:05:03.115Z,5.57
2023-02-28T02:06:03.090Z,5.51
2023-02-28T02:07:03.103Z,5.48
2023-02-28T02:08:03.077Z,5.48
2023-02-28T02:09:03.056Z,5.46
2023-02-28T02:10:03.052Z,5.43
2023-02-28T02:11:03.060Z,5.39
2023-02-28T02:12:03.035Z,5.32
2023-02-28T02:13:03.020Z,5.36
2023-02-28T02:14:03.008Z,5.30
2023-02-28T02:15:03.030Z,5.32
2023-02-28T02:16:03.024Z,5.35
2023-02-28T02:17:02.978Z,5.33
2023-02-28T02:18:02.957Z,5.18
2023-02-28T02:19:02.972Z,5.29
2023-02-28T02:20:02.951Z,5.26
2023-02-28T02:21:02.949Z,5.25
2023-02-28T02:22:02.926Z,5.23
2023-02-28T02:23:02.900Z,5.26
2023-02-28T02:24:02.895Z,5.12
2023-02-28T02:25:02.900Z,5.17
2023-02-28T02:26:02.874Z,5.15
2023-02-28T02:27:02.887Z,5.15
2023-02-28T02:28:02.849Z,5.08
2023-02-28T02:29:02.837Z,5.15
2023-02-28T02:30:02.832Z,5.12
2023-02-28T02:31:02.842Z,5.15
2023-02-28T02:32:02.846Z,5.18
2023-02-28T02:33:02.806Z,5.10
2023-02-28T02:34:02.794Z,5.08
2023-02-28T02:35:02.805Z,5.12
2023-02-28T02:36:02.914Z,5.12
2023-02-28T02:37:02.772Z,5.07
2023-02-28T02:38:02.759Z,5.04
2023-02-28T02:39:02.743Z,5.05
2023-02-28T02:40:02.727Z,5.10
2023-02-28T02:41:02.729Z,5.04
2023-02-28T02:42:02.752Z,5.08
2023-02-28T02:43:02.708Z,5.05
2023-02-28T02:44:02.701Z,5.05
2023-02-28T02:45:02.689Z,5.02
2023-02-28T02:46:02.673Z,5.02
2023-02-28T02:47:02.687Z,5.00
2023-02-28T02:48:02.681Z,4.96
2023-02-28T02:49:02.639Z,5.00
2023-02-28T02:50:02.634Z,5.05
2023-02-28T02:51:02.618Z,4.97
2023-02-28T02:52:02.606Z,5.02
2023-02-28T02:53:02.626Z,4.99
2023-02-28T02:54:02.579Z,4.96
2023-02-28T02:55:02.582Z,4.92
2023-02-28T02:56:02.554Z,4.93
2023-02-28T02:57:02.546Z,4.84
2023-02-28T02:58:02.539Z,4.75
2023-02-28T02:59:02.520Z,4.87
2023-02-28T03:00:02.532Z,4.92
2023-02-28T03:01:02.538Z,4.89
2023-02-28T03:02:02.496Z,4.89
2023-02-28T03:03:02.491Z,4.82
2023-02-28T03:04:02.495Z,4.80
2023-02-28T03:05:02.469Z,4.92
2023-02-28T03:06:02.486Z,4.68
2023-02-28T03:07:02.455Z,4.73
2023-02-28T03:08:02.428Z,4.80
2023-02-28T03:09:02.418Z,4.68
2023-02-28T03:10:02.399Z,4.77
2023-02-28T03:11:02.443Z,4.78
2023-02-28T03:12:02.400Z,4.77
2023-02-28T03:13:02.365Z,4.63
2023-02-28T03:14:02.364Z,4.68
2023-02-28T03:15:02.355Z,4.62
2023-02-28T03:16:02.368Z,4.62
2023-02-28T03:17:02.339Z,4.77
2023-02-28T03:18:02.330Z,4.75
2023-02-28T03:19:02.316Z,4.63
2023-02-28T03:20:02.302Z,4.63
2023-02-28T03:21:02.282Z,4.70
2023-02-28T03:22:02.299Z,4.62
2023-02-28T03:23:02.289Z,4.66
2023-02-28T03:24:02.267Z,4.71
2023-02-28T03:25:02.239Z,4.63
2023-02-28T03:26:02.236Z,4.66
2023-02-28T03:27:02.236Z,4.62
2023-02-28T03:28:02.221Z,4.73
2023-02-28T03:29:02.196Z,4.70
2023-02-28T03:30:02.206Z,4.71
2023-02-28T03:31:02.175Z,4.63
2023-02-28T03:32:02.273Z,4.62
2023-02-28T03:33:02.210Z,4.59
2023-02-28T03:34:02.161Z,4.62
2023-02-28T03:35:02.162Z,4.59
2023-02-28T03:36:02.183Z,4.59
2023-02-28T03:37:02.156Z,4.66
2023-02-28T03:38:02.110Z,4.62
2023-02-28T03:39:02.130Z,4.62
2023-02-28T03:40:02.085Z,4.59
2023-02-28T03:41:02.068Z,4.62
2023-02-28T03:42:02.063Z,4.56
2023-02-28T03:43:02.049Z,4.59
2023-02-28T03:44:02.053Z,4.55
2023-02-28T03:45:02.061Z,4.58
2023-02-28T03:46:02.043Z,4.56
2023-02-28T03:47:02.003Z,4.59
2023-02-28T03:48:02.003Z,4.55
2023-02-28T03:49:01.989Z,4.58
2023-02-28T03:50:01.985Z,4.55
2023-02-28T03:51:01.963Z,4.56
2023-02-28T03:52:01.954Z,4.50
2023-02-28T03:53:01.953Z,4.55
2023-02-28T03:54:01.928Z,4.55
2023-02-28T03:55:01.952Z,4.50
2023-02-28T03:56:01.918Z,4.48
2023-02-28T03:57:01.898Z,4.44
2023-02-28T03:58:01.885Z,4.50
2023-02-28T03:59:01.884Z,4.44
2023-02-28T04:00:01.887Z,4.40
2023-02-28T04:01:01.878Z,4.42
2023-02-28T04:02:01.909Z,4.37
2023-02-28T04:03:01.848Z,4.34
2023-02-28T04:04:01.825Z,4.40
2023-02-28T04:05:01.837Z,4.37
2023-02-28T04:06:01.806Z,4.30
2023-02-28T04:07:01.794Z,4.42
2023-02-28T04:08:01.795Z,4.34
2023-02-28T04:09:01.777Z,4.42
2023-02-28T04:10:01.765Z,4.42
2023-02-28T04:11:01.765Z,4.35
2023-02-28T04:12:01.758Z,4.34
2023-02-28T04:13:01.738Z,4.31
2023-02-28T04:14:01.715Z,4.30
2023-02-28T04:15:01.707Z,4.34
2023-02-28T04:16:01.799Z,4.31
2023-02-28T04:17:01.684Z,4.34
2023-02-28T04:18:01.683Z,4.30
2023-02-28T04:19:01.682Z,4.31
2023-02-28T04:20:01.645Z,4.31
2023-02-28T04:21:01.637Z,4.38
2023-02-28T04:22:01.642Z,4.23
2023-02-28T04:23:01.628Z,4.31
2023-02-28T04:24:01.763Z,4.30
2023-02-28T04:25:01.594Z,4.23
2023-02-28T04:26:01.601Z,4.28
2023-02-28T04:27:01.605Z,4.28
2023-02-28T04:28:01.572Z,4.26
2023-02-28T04:29:01.552Z,4.31
2023-02-28T04:30:01.565Z,4.24
2023-02-28T04:31:01.538Z,4.31
2023-02-28T04:32:01.783Z,4.23
2023-02-28T04:33:01.518Z,4.24
2023-02-28T04:34:01.502Z,4.32
2023-02-28T04:35:01.526Z,4.13
2023-02-28T04:36:01.492Z,4.26
2023-02-28T04:37:13.972Z,4.22
2023-02-28T04:38:02.460Z,4.23
2023-02-28T04:39:01.454Z,4.30
2023-02-28T04:40:01.451Z,4.19
2023-02-28T04:41:08.511Z,4.14
2023-02-28T04:42:01.449Z,4.23
2023-02-28T04:43:01.422Z,4.08
2023-02-28T04:44:01.407Z,4.22
2023-02-28T04:45:01.385Z,4.20
2023-02-28T04:46:01.420Z,4.12
2023-02-28T04:47:01.370Z,4.10
2023-02-28T04:48:01.397Z,4.10
2023-02-28T04:49:01.351Z,4.12
2023-02-28T04:50:01.330Z,4.06
2023-02-28T04:51:01.323Z,4.02
2023-02-28T04:52:01.300Z,4.10
2023-02-28T04:53:01.304Z,4.02
2023-02-28T04:54:01.299Z,4.04
2023-02-28T04:55:01.278Z,4.10
2023-02-28T04:56:01.306Z,4.01
2023-02-28T04:57:01.258Z,4.01
2023-02-28T04:58:01.254Z,3.96
2023-02-28T04:59:01.355Z,4.06
2023-02-28T05:00:01.221Z,4.10
2023-02-28T05:01:01.211Z,4.05
2023-02-28T05:02:01.222Z,4.10
2023-02-28T05:03:01.201Z,4.05
2023-02-28T05:04:01.205Z,4.06
2023-02-28T05:05:01.219Z,4.08
2023-02-28T05:06:01.155Z,4.01
2023-02-28T05:07:01.141Z,4.08
2023-02-28T05:08:01.131Z,4.01
2023-02-28T05:09:01.138Z,4.04
2023-02-28T05:10:01.136Z,4.01
2023-02-28T05:11:01.094Z,3.96
2023-02-28T05:12:01.100Z,4.01
2023-02-28T05:13:01.077Z,4.02
2023-02-28T05:14:01.072Z,3.88
2023-02-28T05:15:01.095Z,4.01
2023-02-28T05:16:01.081Z,3.91
2023-02-28T05:17:01.028Z,4.04
2023-02-28T05:18:01.043Z,3.88
2023-02-28T05:19:01.089Z,4.05
2023-02-28T05:20:13.516Z,3.94
2023-02-28T05:21:01.993Z,3.87
2023-02-28T05:22:00.994Z,3.98
2023-02-28T05:23:00.967Z,4.01
2023-02-28T05:24:00.962Z,3.96
2023-02-28T05:25:00.941Z,3.92
2023-02-28T05:26:00.951Z,3.94
2023-02-28T05:27:00.934Z,4.02
2023-02-28T05:28:00.919Z,3.88
2023-02-28T05:29:00.909Z,3.91
2023-02-28T05:30:00.892Z,3.91
2023-02-28T05:31:00.915Z,3.86
2023-02-28T05:32:01.055Z,3.87
2023-02-28T05:33:00.862Z,3.91
2023-02-28T05:34:00.864Z,3.88
2023-02-28T05:35:00.847Z,3.92
2023-02-28T05:36:00.890Z,3.95
2023-02-28T05:37:00.914Z,3.94
2023-02-28T05:38:01.011Z,3.92
2023-02-28T05:39:00.815Z,3.88
2023-02-28T05:40:00.942Z,3.96
2023-02-28T05:41:00.789Z,3.96
2023-02-28T05:42:00.759Z,3.92
2023-02-28T05:43:00.768Z,3.98
2023-02-28T05:44:00.786Z,3.86
2023-02-28T05:45:00.736Z,3.95
2023-02-28T05:46:00.762Z,3.88
2023-02-28T05:47:00.733Z,3.88
2023-02-28T05:48:01.115Z,3.83
2023-02-28T05:49:01.834Z,3.83
2023-02-28T05:50:00.704Z,3.86
2023-02-28T05:51:00.663Z,3.92
2023-02-28T05:52:00.662Z,3.94
2023-02-28T05:53:00.673Z,3.80
2023-02-28T05:54:00.630Z,3.98
2023-02-28T05:55:00.627Z,3.91
2023-02-28T05:56:00.636Z,3.94
2023-02-28T05:57:00.871Z,3.91
2023-02-28T05:58:00.610Z,3.94
2023-02-28T05:59:00.582Z,3.91
2023-02-28T06:00:00.579Z,3.81
2023-02-28T06:01:00.586Z,3.83
2023-02-28T06:02:00.632Z,3.80
2023-02-28T06:03:00.660Z,3.91
2023-02-28T06:04:00.578Z,3.86
2023-02-28T06:05:00.523Z,3.81
2023-02-28T06:06:00.516Z,3.87
2023-02-28T06:07:00.528Z,3.80
2023-02-28T06:08:00.494Z,3.86
2023-02-28T06:09:00.509Z,3.87
2023-02-28T06:10:00.460Z,3.84
2023-02-28T06:11:00.453Z,3.84
2023-02-28T06:12:00.462Z,3.83
2023-02-28T06:13:00.428Z,3.83
2023-02-28T06:14:01.058Z,3.78
2023-02-28T06:15:00.435Z,3.86
2023-02-28T06:16:00.408Z,3.83
2023-02-28T06:17:00.530Z,3.92
2023-02-28T06:18:00.375Z,3.84
2023-02-28T06:19:00.547Z,3.81
2023-02-28T06:20:00.384Z,3.96
2023-02-28T06:21:00.349Z,3.83
2023-02-28T06:22:00.357Z,3.84
2023-02-28T06:23:00.402Z,3.87
2023-02-28T06:24:00.326Z,3.84
2023-02-28T06:25:00.302Z,3.83
2023-02-28T06:26:00.309Z,3.87
2023-02-28T06:27:00.296Z,3.88
2023-02-28T06:28:00.281Z,3.91
2023-02-28T06:29:00.273Z,3.92
2023-02-28T06:30:00.248Z,3.96
2023-02-28T06:31:00.305Z,3.95
2023-02-28T06:32:00.303Z,3.87
2023-02-28T06:33:00.280Z,3.92
2023-02-28T06:34:00.228Z,3.94
2023-02-28T06:35:00.300Z,4.02
2023-02-28T06:36:00.257Z,3.92
2023-02-28T06:37:00.182Z,3.88
2023-02-28T06:38:00.175Z,3.94
2023-02-28T06:39:00.176Z,4.01
2023-02-28T06:40:00.163Z,4.01
2023-02-28T06:41:00.313Z,4.01
2023-02-28T06:42:00.142Z,4.04
2023-02-28T06:43:00.126Z,3.99
2023-02-28T06:44:00.124Z,3.96
2023-02-28T06:45:00.091Z,4.04
2023-02-28T06:46:00.194Z,4.02
2023-02-28T06:47:00.119Z,4.05
2023-02-28T06:48:00.146Z,4.01
2023-02-28T06:49:00.049Z,3.96
2023-02-28T06:50:00.050Z,4.08
2023-02-28T06:51:00.044Z,4.13
2023-02-28T06:52:00.041Z,4.12
2023-02-28T06:53:00.032Z,4.10
2023-02-28T06:54:00.048Z,4.10
2023-02-28T06:54:59.985Z,4.14
2023-02-28T06:55:59.983Z,4.16
2023-02-28T06:56:59.993Z,4.14
2023-02-28T06:57:59.975Z,4.23
2023-02-28T06:58:59.950Z,4.26
2023-02-28T06:59:59.940Z,4.23
2023-02-28T07:00:59.928Z,4.17
2023-02-28T07:01:59.979Z,4.30
2023-02-28T07:02:59.917Z,4.24
2023-02-28T07:03:59.895Z,4.31
2023-02-28T07:04:59.931Z,4.22
2023-02-28T07:05:59.905Z,4.30
2023-02-28T07:06:59.896Z,4.38
2023-02-28T07:07:59.896Z,4.42
2023-02-28T07:08:59.842Z,4.40
2023-02-28T07:09:59.843Z,4.41
2023-02-28T07:10:59.861Z,4.34
2023-02-28T07:11:59.806Z,4.40
2023-02-28T07:12:59.799Z,4.41
2023-02-28T07:13:59.772Z,4.35
2023-02-28T07:14:59.803Z,4.45
2023-02-28T07:15:59.786Z,4.48
2023-02-28T07:16:59.746Z,4.48
2023-02-28T07:17:59.733Z,4.52
2023-02-28T07:18:59.731Z,4.56
2023-02-28T07:19:59.738Z,4.55
2023-02-28T07:20:59.710Z,4.58
2023-02-28T07:21:59.693Z,4.62
2023-02-28T07:22:59.701Z,4.68
2023-02-28T07:23:59.693Z,4.70
2023-02-28T07:24:59.657Z,4.74
2023-02-28T07:25:59.682Z,4.99
2023-02-28T07:26:59.646Z,5.15
2023-02-28T07:27:59.624Z,5.29
2023-02-28T07:28:59.627Z,5.51
2023-02-28T07:29:59.619Z,5.64
2023-02-28T07:30:59.652Z,5.72
2023-02-28T07:31:59.591Z,5.75
2023-02-28T07:32:59.582Z,5.76
2023-02-28T07:33:59.582Z,5.65
2023-02-28T07:34:59.557Z,5.71
2023-02-28T07:35:59.616Z,5.68
2023-02-28T07:36:59.547Z,5.65
2023-02-28T07:37:59.524Z,5.62
2023-02-28T07:38:59.549Z,5.56
2023-02-28T07:39:59.498Z,5.59
2023-02-28T07:49:14.340Z,5.59
2023-02-28T07:50:13.142Z,5.66
2023-02-28T07:51:13.109Z,5.72
2023-02-28T07:52:13.118Z,5.68
2023-02-28T07:53:13.111Z,5.72
2023-02-28T07:54:13.094Z,5.75
2023-02-28T07:55:13.084Z,5.75
2023-02-28T07:56:13.058Z,5.83
2023-02-28T07:57:13.065Z,5.80
2023-02-28T07:58:13.073Z,5.84
2023-02-28T07:59:13.029Z,5.80
2023-02-28T08:00:13.056Z,5.93
2023-02-28T08:01:13.024Z,5.86
2023-02-28T08:02:13.067Z,5.93
2023-02-28T08:03:13.019Z,6.05
2023-02-28T08:04:13.001Z,6.02
2023-02-28T08:05:13.046Z,6.12
2023-02-28T08:06:12.967Z,6.12
2023-02-28T08:07:12.956Z,6.24
2023-02-28T08:08:12.935Z,6.27
2023-02-28T08:09:13.471Z,6.33
2023-02-28T08:10:12.987Z,6.36
2023-02-28T08:11:12.914Z,6.48
2023-02-28T08:12:12.893Z,6.49
2023-02-28T08:13:12.912Z,6.49
2023-02-28T08:14:12.895Z,6.49
2023-02-28T08:15:12.884Z,6.56
2023-02-28T08:16:12.919Z,6.63
2023-02-28T08:17:12.847Z,6.60
2023-02-28T08:18:12.818Z,6.69
2023-02-28T08:19:12.810Z,6.60
2023-02-28T08:20:12.817Z,6.74
2023-02-28T08:21:12.794Z,6.64
2023-02-28T08:22:12.787Z,6.75
2023-02-28T08:23:12.766Z,6.79
2023-02-28T08:24:12.750Z,6.82
2023-02-28T08:25:12.764Z,6.93
2023-02-28T08:26:12.784Z,6.87
2023-02-28T08:27:12.729Z,6.95
2023-02-28T08:28:12.731Z,7.00
2023-02-28T08:29:12.707Z,7.10
2023-02-28T08:30:12.685Z,7.13
2023-02-28T08:31:12.740Z,7.21
2023-02-28T08:32:28.637Z,7.14
2023-02-28T08:33:13.675Z,7.29
2023-02-28T08:34:12.652Z,7.28
2023-02-28T08:35:12.634Z,7.25
2023-02-28T08:36:12.658Z,7.32
2023-02-28T08:37:12.649Z,7.31
2023-02-28T08:38:12.613Z,7.35
2023-02-28T08:39:12.597Z,7.38
2023-02-28T08:40:12.576Z,7.43
2023-02-28T08:41:12.601Z,7.56
2023-02-28T08:42:12.594Z,7.54
2023-02-28T08:43:12.551Z,7.57
2023-02-28T08:44:12.550Z,7.75
2023-02-28T08:45:12.535Z,7.73
2023-02-28T08:46:12.592Z,7.73
2023-02-28T08:47:12.521Z,7.72
2023-02-28T08:48:12.495Z,7.76
2023-02-28T08:49:12.485Z,7.93
2023-02-28T08:50:12.480Z,7.93
2023-02-28T08:51:12.470Z,8.15
2023-02-28T08:52:12.469Z,8.34
2023-02-28T08:53:12.467Z,8.82
2023-02-28T08:54:12.437Z,9.56
2023-02-28T08:55:12.422Z,10.78
2023-02-28T08:56:12.443Z,12.21
2023-02-28T08:57:12.410Z,13.56
2023-02-28T08:58:12.413Z,14.55
2023-02-28T08:59:12.480Z,15.75
2023-02-28T09:00:12.379Z,16.94
2023-02-28T09:01:12.422Z,18.01
2023-02-28T09:02:12.349Z,19.09
2023-02-28T09:03:12.352Z,19.94
2023-02-28T09:04:13.270Z,20.65
2023-02-28T09:05:12.334Z,21.29
2023-02-28T09:06:12.328Z,21.73
2023-02-28T09:07:12.295Z,22.20
2023-02-28T09:08:12.269Z,22.53
2023-02-28T09:09:12.308Z,22.85
2023-02-28T09:10:12.258Z,23.23
2023-02-28T09:11:12.285Z,23.62
2023-02-28T09:12:12.251Z,23.88
2023-02-28T09:13:12.221Z,24.36
2023-02-28T09:14:12.221Z,24.57
2023-02-28T09:15:12.226Z,24.86
2023-02-28T09:16:12.302Z,25.08
2023-02-28T09:17:12.185Z,25.35
2023-02-28T09:18:12.177Z,25.63
2023-02-28T09:19:12.148Z,25.66
2023-02-28T09:20:12.188Z,25.72
2023-02-28T09:21:12.142Z,25.65
2023-02-28T09:22:12.152Z,25.58
2023-02-28T09:23:12.120Z,25.36
2023-02-28T09:24:12.096Z,25.38
2023-02-28T09:25:12.106Z,25.13
2023-02-28T09:26:12.108Z,25.06
2023-02-28T09:27:12.060Z,24.74
2023-02-28T09:28:12.065Z,24.10
2023-02-28T09:29:12.079Z,23.78
2023-02-28T09:30:12.196Z,23.62
2023-02-28T09:31:12.198Z,23.21
2023-02-28T09:32:12.891Z,22.76
2023-02-28T09:33:12.078Z,22.47
2023-02-28T09:34:12.272Z,22.38
2023-02-28T09:35:12.098Z,22.35
2023-02-28T09:36:12.226Z,22.30
2023-02-28T09:37:12.231Z,21.92
2023-02-28T09:38:12.247Z,22.14
2023-02-28T09:39:12.109Z,22.02
2023-02-28T09:40:12.197Z,21.69
2023-02-28T09:41:12.292Z,21.24
2023-02-28T09:42:11.934Z,20.66
2023-02-28T09:43:12.155Z,20.02
2023-02-28T09:44:11.891Z,19.49
2023-02-28T09:45:11.909Z,19.09
2023-02-28T09:46:11.989Z,18.77
2023-02-28T09:47:11.861Z,18.63
2023-02-28T09:48:11.849Z,18.47
2023-02-28T09:49:11.910Z,18.50
2023-02-28T09:50:11.834Z,18.25
2023-02-28T09:51:11.813Z,17.95
2023-02-28T09:52:11.810Z,17.57
2023-02-28T09:53:11.789Z,17.27
2023-02-28T09:54:11.881Z,17.46
2023-02-28T09:55:11.779Z,17.89
2023-02-28T09:56:11.756Z,18.28
2023-02-28T09:57:11.753Z,18.52
2023-02-28T09:58:11.740Z,18.89
2023-02-28T09:59:11.750Z,19.04
2023-02-28T10:00:11.749Z,19.81
2023-02-28T10:01:11.773Z,20.69
2023-02-28T10:02:13.263Z,21.75
2023-02-28T10:03:12.033Z,22.66
2023-02-28T10:04:11.759Z,23.55
2023-02-28T10:05:11.672Z,24.30
2023-02-28T10:06:11.653Z,24.73
2023-02-28T10:07:11.638Z,25.01
2023-02-28T10:08:11.817Z,25.11
2023-02-28T10:09:11.635Z,25.22
2023-02-28T10:10:12.005Z,25.16
2023-02-28T10:11:11.630Z,25.04
2023-02-28T10:12:11.590Z,24.73
2023-02-28T10:13:11.616Z,24.65
2023-02-28T10:14:12.357Z,24.45
2023-02-28T10:15:11.741Z,23.88
2023-02-28T10:16:13.120Z,23.34
2023-02-28T10:17:11.526Z,22.63
2023-02-28T10:18:12.813Z,21.88
2023-02-28T10:19:11.528Z,21.20
2023-02-28T10:20:11.506Z,20.41
2023-02-28T10:21:11.494Z,19.71
2023-02-28T10:22:11.501Z,19.16
2023-02-28T10:23:11.693Z,18.60
2023-02-28T10:25:11.447Z,17.54
2023-02-28T10:26:11.432Z,17.26
2023-02-28T10:27:11.449Z,16.86
2023-02-28T10:28:11.423Z,16.46
2023-02-28T10:29:11.424Z,15.90
2023-02-28T10:30:11.419Z,15.68
2023-02-28T10:31:11.421Z,15.42
2023-02-28T10:32:11.412Z,15.22
2023-02-28T10:33:11.411Z,15.09
2023-02-28T10:34:11.377Z,14.92
2023-02-28T10:35:11.336Z,14.66
2023-02-28T10:36:11.376Z,14.63
2023-02-28T10:37:11.322Z,14.55
2023-02-28T10:38:11.322Z,14.44
2023-02-28T10:39:11.298Z,14.35
2023-02-28T10:40:11.289Z,14.32
2023-02-28T10:41:21.403Z,14.23
2023-02-28T10:42:11.278Z,14.30
2023-02-28T10:43:11.272Z,14.36
2023-02-28T10:44:11.252Z,14.30
2023-02-28T10:45:11.254Z,14.47
2023-02-28T10:46:11.302Z,14.58
2023-02-28T10:47:11.212Z,14.63
2023-02-28T10:48:11.197Z,14.63
2023-02-28T10:49:11.201Z,14.45
2023-02-28T10:50:11.201Z,14.32
2023-02-28T10:51:11.164Z,14.28
2023-02-28T10:52:11.154Z,14.45
2023-02-28T10:53:11.143Z,14.40
2023-02-28T10:54:11.150Z,14.43
2023-02-28T10:55:11.131Z,14.45
2023-02-28T10:56:11.125Z,14.30
2023-02-28T10:57:11.099Z,14.04
2023-02-28T10:58:11.086Z,13.90
2023-02-28T10:59:11.110Z,13.83
2023-02-28T11:00:11.097Z,13.78
2023-02-28T11:01:11.062Z,13.65
2023-02-28T11:02:11.086Z,13.75
2023-02-28T11:03:11.050Z,13.70
2023-02-28T11:04:11.986Z,13.68
2023-02-28T11:05:11.030Z,13.56
2023-02-28T11:06:11.866Z,13.57
2023-02-28T11:07:12.217Z,13.38
2023-02-28T11:08:10.975Z,13.25
2023-02-28T11:09:10.963Z,13.12
2023-02-28T11:10:10.959Z,13.13
2023-02-28T11:11:10.969Z,13.13
2023-02-28T11:12:10.937Z,12.97
2023-02-28T11:13:10.923Z,12.85
2023-02-28T11:14:10.903Z,12.82
2023-02-28T11:15:10.901Z,12.64
2023-02-28T11:16:10.924Z,12.65
2023-02-28T11:17:10.895Z,12.61
2023-02-28T11:18:10.866Z,12.46
2023-02-28T11:19:10.846Z,12.58
2023-02-28T11:20:10.846Z,12.45
2023-02-28T11:21:10.858Z,12.45
2023-02-28T11:22:10.850Z,12.37
2023-02-28T11:23:10.808Z,12.37
2023-02-28T11:24:10.800Z,12.39
2023-02-28T11:25:10.779Z,12.46
2023-02-28T11:26:10.778Z,12.47
2023-02-28T11:27:10.789Z,12.46
2023-02-28T11:28:10.750Z,12.46
2023-02-28T11:29:10.752Z,12.53
2023-02-28T11:30:10.737Z,12.47
2023-02-28T11:31:10.785Z,12.28
2023-02-28T11:32:10.806Z,12.31
2023-02-28T11:33:10.748Z,12.17
2023-02-28T11:34:10.690Z,12.17
2023-02-28T11:35:10.667Z,12.18
2023-02-28T11:36:10.680Z,12.17
2023-02-28T11:37:10.647Z,12.29
2023-02-28T11:38:10.702Z,12.27
2023-02-28T11:39:10.633Z,12.27
2023-02-28T11:40:10.620Z,12.29
2023-02-28T11:41:10.605Z,12.36
2023-02-28T11:42:10.619Z,12.35
2023-02-28T11:43:10.580Z,12.37
2023-02-28T11:44:10.589Z,12.32
2023-02-28T11:45:10.566Z,12.37
2023-02-28T11:46:10.585Z,12.40
2023-02-28T11:47:10.547Z,12.47
2023-02-28T11:48:10.523Z,12.46
2023-02-28T11:49:10.529Z,12.57
2023-02-28T11:50:10.530Z,12.57
2023-02-28T11:51:10.498Z,12.58
2023-02-28T11:52:10.490Z,12.58
2023-02-28T11:53:10.474Z,12.68
2023-02-28T11:54:10.492Z,12.70
2023-02-28T11:55:10.500Z,12.65
2023-02-28T11:56:10.449Z,12.65
2023-02-28T11:57:10.436Z,12.64
2023-02-28T11:58:10.420Z,12.65
2023-02-28T11:59:10.451Z,12.70
2023-02-28T12:00:10.404Z,12.78
2023-02-28T12:01:10.409Z,12.72
2023-02-28T12:02:10.411Z,12.70
2023-02-28T12:03:10.420Z,12.64
2023-02-28T12:04:10.376Z,12.68
2023-02-28T12:05:10.382Z,12.54
2023-02-28T12:06:10.341Z,12.57
2023-02-28T12:07:10.380Z,12.50
2023-02-28T12:08:10.318Z,12.46
2023-02-28T12:09:10.329Z,12.49
2023-02-28T12:10:10.341Z,12.49
2023-02-28T12:11:10.380Z,12.47
2023-02-28T12:12:10.281Z,12.40
2023-02-28T12:13:10.277Z,12.45
2023-02-28T12:14:10.251Z,12.37
2023-02-28T12:15:10.247Z,12.35
2023-02-28T12:16:10.292Z,12.32
2023-02-28T12:17:10.580Z,12.32
2023-02-28T12:18:10.236Z,12.22
2023-02-28T12:19:10.205Z,12.25
2023-02-28T12:20:10.197Z,12.10
2023-02-28T12:21:10.192Z,12.03
2023-02-28T12:22:10.181Z,11.97
2023-02-28T12:23:10.159Z,12.06
2023-02-28T12:24:10.161Z,12.00
2023-02-28T12:25:10.161Z,11.95
2023-02-28T12:26:10.146Z,12.02
2023-02-28T12:27:10.109Z,12.04
2023-02-28T12:28:10.137Z,12.03
2023-02-28T12:29:10.112Z,12.04
2023-02-28T12:30:10.099Z,12.06
2023-02-28T12:31:10.071Z,12.06
2023-02-28T12:32:10.194Z,12.04
2023-02-28T12:33:10.057Z,12.03
2023-02-28T12:34:10.055Z,12.12
2023-02-28T12:35:10.033Z,12.18
2023-02-28T12:36:10.048Z,12.10
2023-02-28T12:37:10.000Z,12.17
2023-02-28T12:38:09.994Z,12.18
2023-02-28T12:39:10.897Z,12.22
2023-02-28T12:40:10.003Z,12.28
2023-02-28T12:41:09.957Z,12.32
2023-02-28T12:42:09.966Z,12.21
2023-02-28T12:43:09.941Z,12.15
2023-02-28T12:44:09.921Z,12.18
2023-02-28T12:45:11.330Z,12.04
2023-02-28T12:46:10.063Z,11.91
2023-02-28T12:47:09.891Z,12.00
2023-02-28T12:48:09.874Z,11.95
2023-02-28T12:49:09.868Z,11.88
2023-02-28T12:50:10.396Z,11.81
2023-02-28T12:51:10.957Z,11.81
2023-02-28T12:52:09.827Z,11.78
2023-02-28T12:53:09.815Z,11.65
2023-02-28T12:54:09.837Z,11.65
2023-02-28T12:55:09.803Z,11.68
2023-02-28T12:56:09.789Z,11.59
2023-02-28T12:57:09.774Z,11.66
2023-02-28T12:58:09.784Z,11.62
2023-02-28T12:59:09.763Z,11.77
2023-02-28T13:00:09.765Z,11.75
2023-02-28T13:01:09.797Z,11.81
2023-02-28T13:02:09.764Z,11.77
2023-02-28T13:03:09.740Z,11.78
2023-02-28T13:04:09.699Z,11.73
2023-02-28T13:05:09.686Z,11.77
2023-02-28T13:06:09.693Z,11.75
2023-02-28T13:07:09.667Z,11.81
2023-02-28T13:08:09.671Z,11.81
2023-02-28T13:09:09.676Z,11.90
2023-02-28T13:10:09.639Z,11.94
2023-02-28T13:11:20.937Z,11.95
2023-02-28T13:12:10.615Z,12.04
2023-02-28T13:13:09.609Z,11.95
2023-02-28T13:14:09.631Z,12.04
2023-02-28T13:15:09.582Z,11.97
2023-02-28T13:16:09.566Z,12.07
2023-02-28T13:17:09.557Z,12.07
2023-02-28T13:18:09.575Z,12.22